• Join FlightAware (Why Join?)
  • Login
  • US Flag 
09:03AM EDT


 

Airport Tracker/Info


-or-


 

Live Flight TrackerFlight Track Log ✈ UAL5835 ✈ 20-Feb-2014 ✈ KFSD - KORD

Flight Track Log - Related Links

Times and Time Zones

All times are in EST time to prevent confusion due to time zone crossing. See the UAL5835 flight status page for this flight to view local times or setup timezone preferences in your user account.

Time Position Orientation Groundspeed Altitude Reporting Facility
EST Latitude Longitude Course Direction KTS MPH feet Rate Location/Type
04:14PM 43.6022 -96.7506 48° Northeast 143 165 31,000  Level Minneapolis Center
04:15PM 43.6283 -96.7108 48° Northeast 202 232 4,000 -11,880 Descending Minneapolis Center
04:16PM 43.6169 -96.5881 97° East 276 318 6,700 2,340 Climbing Minneapolis Center
04:17PM 43.6103 -96.4811 95° East 274 315 8,800 1,980 Climbing Minneapolis Center
04:18PM 43.6022 -96.3697 96° East 282 325 10,800 2,040 Climbing Minneapolis Center
04:19PM 43.5950 -96.2544 95° East 293 337 13,000 1,800 Climbing Minneapolis Center
04:20PM 43.5867 -96.1372 96° East 302 348 14,500 1,260 Climbing Minneapolis Center
04:21PM 43.5775 -96.0131 96° East 317 365 15,700 1,260 Climbing Minneapolis Center
04:22PM 43.5672 -95.8542 95° East 340 391 17,100 1,440 Climbing Minneapolis Center
04:23PM 43.5564 -95.7161 96° East 359 413 18,700 1,320 Climbing Minneapolis Center
04:24PM 43.5461 -95.5742 96° East 369 425 19,900 1,200 Climbing Minneapolis Center
04:25PM 43.5347 -95.4283 96° East 380 437 21,200 1,140 Climbing Minneapolis Center
04:26PM 43.5239 -95.2808 96° East 385 443 22,300 1,140 Climbing Minneapolis Center
04:27PM 43.5131 -95.1328 96° East 389 448 23,600 1,260 Climbing Minneapolis Center
04:28PM 43.5008 -94.9867 97° East 388 447 25,000 1,380 Climbing Minneapolis Center
04:29PM 43.4897 -94.8453 96° East 378 435 26,500 1,080 Climbing Minneapolis Center
04:30PM 43.4761 -94.6769 96° East 372 428 27,300 900 Climbing Minneapolis Center
04:31PM 43.4636 -94.5367 97° East 372 428 28,400 1,080 Climbing Minneapolis Center
04:32PM 43.4528 -94.3981 96° East 368 423 29,600 1,140 Climbing Minneapolis Center
04:33PM 43.4411 -94.2633 97° East 359 413 30,800 660 Climbing Minneapolis Center
04:34PM 43.4278 -94.1142 97° East 360 414 31,000 60 Climbing Minneapolis Center
04:35PM 43.4144 -93.9678 97° East 377 434 31,000  Level Minneapolis Center
04:36PM 43.4011 -93.8169 97° East 394 453 31,000  Level Minneapolis Center
04:37PM 43.3864 -93.6656 98° East 400 460 31,000  Level Minneapolis Center
04:38PM 43.3733 -93.5133 97° East 402 463 31,000  Level Minneapolis Center
04:39PM 43.3594 -93.3644 97° East 399 459 31,000  Level Minneapolis Center
04:40PM 43.3447 -93.2164 98° East 395 455 31,000  Level Minneapolis Center
04:41PM 43.3286 -93.0428 97° East 385 443 31,000  Level Minneapolis Center
04:42PM 43.3136 -92.8992 98° East 383 441 31,000  Level Minneapolis Center
04:43PM 43.3003 -92.7544 97° East 385 443 31,000  Level Minneapolis Center
04:44PM 43.2850 -92.6083 98° East 386 444 31,000  Level Minneapolis Center
04:45PM 43.2692 -92.4564 98° East 400 460 31,000  Level Minneapolis Center
04:46PM 43.2539 -92.3025 98° East 407 468 31,000  Level Minneapolis Center
04:47PM 43.2381 -92.1503 98° East 405 466 31,000  Level Minneapolis Center
04:48PM 43.2217 -91.9978 98° East 406 467 31,000  Level Minneapolis Center
04:49PM 43.2025 -91.8117 98° East 408 470 31,000  Level Minneapolis Center
04:50PM 43.1842 -91.6597 99° East 407 468 31,000  Level Minneapolis Center
04:51PM 43.1400 -91.5264 114° Southeast 387 445 31,000  Level Minneapolis Center
04:53PM 43.0936 -91.3925 115° Southeast 387 445 31,000  Level Minneapolis Center
04:54PM 43.0458 -91.2564 116° Southeast 391 450 31,000  Level Minneapolis Center
04:55PM 42.9978 -91.1181 115° Southeast 396 456 31,000 -420 Level Minneapolis Center
04:56PM 42.9506 -90.9806 115° Southeast 399 459 30,200 -960 Descending Minneapolis Center
04:57PM 42.9256 -90.8394 104° East 392 451 29,100 -1,320 Descending Minneapolis Center
04:58PM 42.8894 -90.6528 105° East 367 422 27,300 -1,380 Descending Chicago Center
04:59PM 42.8614 -90.5192 106° East 370 426 26,000 -1,380 Descending Chicago Center
05:00PM 42.8308 -90.3828 107° East 378 435 24,500 -1,020 Descending Chicago Center
05:01PM 42.7867 -90.2531 115° Southeast 376 433 24,000 -300 Descending Chicago Center
05:02PM 42.7453 -90.1206 113° Southeast 384 442 24,000  Level Chicago Center
05:03PM 42.7336 -89.9683 96° East 420 483 24,000  Level Chicago Center
05:04PM 42.7742 -89.8139 70° East 429 494 24,000 -240 Level Chicago Center
05:05PM 42.8083 -89.6253 76° East 432 497 23,600 -1,020 Descending Chicago Center
05:06PM 42.7717 -89.4886 110° East 386 444 22,000 -1,800 Descending Chicago Center
05:07PM 42.7197 -89.3672 120° Southeast 375 432 20,000 -2,280 Descending Chicago Center
05:08PM 42.6722 -89.2500 119° Southeast 360 414 17,400 -2,280 Descending Chicago Center
05:09PM 42.6264 -89.1389 119° Southeast 343 395 15,400 -1,980 Descending Chicago Center
05:10PM 42.5836 -89.0381 120° Southeast 315 362 13,400 -1,200 Descending Chicago Center
05:11PM 42.5447 -88.9436 119° Southeast 295 339 13,000 -300 Descending Chicago Center
05:12PM 42.4961 -88.8281 120° Southeast 297 342 12,800 -540 Descending Chicago Center
05:13PM 42.4611 -88.7436 119° Southeast 260 299 11,900 -1,020 Descending Chicago Center
05:14PM 42.4275 -88.6667 121° Southeast 239 275 10,800 -540 Descending Chicago Center
05:15PM 42.3897 -88.6122 133° Southeast 207 238 10,900  Climbing Chicago Center
05:16PM 42.3450 -88.6392 204° Southwest 184 212 10,900 -60 Level Chicago Center
05:17PM 42.3547 -88.7172 280° West 233 268 10,800 -60 Descending Chicago Center
05:18PM 42.3881 -88.7972 299° West 244 281 10,800  Level Chicago Center
05:19PM 42.4294 -88.8933 300° West 248 285 10,900  Climbing Chicago Center
05:20PM 42.4953 -88.9119 348° North 288 331 10,900  Level Chicago Center
05:21PM 42.4939 -88.8253 91° East 249 287 10,900  Level Chicago Center
05:22PM 42.4619 -88.7486 119° Southeast 236 272 10,900  Level Chicago Center
05:24PM 42.4319 -88.6744 119° Southeast 228 262 10,900  Level Chicago Center
05:25PM 42.4047 -88.5908 114° Southeast 240 276 10,900 -780 Level Chicago Center
05:26PM 42.3769 -88.5064 114° Southeast 246 283 9,400 -1,440 Descending Chicago Center
05:27PM 42.3369 -88.4231 123° Southeast 236 272 8,000 -1,320 Descending Chicago Center
05:28PM 42.2836 -88.4158 174° South 199 229 6,700 -1,380 Descending Chicago Center
05:29PM 42.2267 -88.4089 175° South 192 221 5,200 -1,320 Descending Chicago Center
05:30PM 42.1753 -88.4006 173° South 187 215 4,000 -600 Descending Chicago Center
05:31PM 42.1239 -88.3894 171° South 175 201 4,000  Level Chicago Center
05:32PM 42.0744 -88.3794 171° South 180 207 4,000  Level Chicago Center
05:33PM 42.0261 -88.3669 169° South 178 205 4,000  Level Chicago Center
05:34PM 42.0008 -88.2967 116° Southeast 223 257 4,000  Level Chicago Center
05:35PM 42.0019 -88.2197 89° East 207 238 4,000  Level Chicago Center
05:36PM 42.0028 -88.1439 89° East 204 235 4,000 -180 Level Chicago Center
05:37PM 42.0000 -88.0833 94° East 203 234 3,700 -660 Descending Chicago TRACON
05:38PM 42.0000 -88.0000 90° East 187 215 2,800 -300 Descending Chicago TRACON
05:39PM 42.0333 -87.9333 56° Northeast 290 334 3,100 600 Climbing Chicago TRACON
05:40PM 42.1000 -87.9333 360° North 266 306 4,000 420 Climbing Chicago TRACON
05:41PM 42.1167 -88.0167 285° West 234 269 4,000  Level Chicago TRACON
05:42PM 42.1000 -88.1167 257° West 233 268 4,000  Level Chicago TRACON
05:43PM 42.0833 -88.2000 255° West 227 261 4,000  Level Chicago TRACON
05:44PM 42.0667 -88.2667 251° West 220 253 4,000  Level Chicago TRACON
05:45PM 42.0667 -88.3500 270° West 227 261 4,000  Level Chicago TRACON
05:46PM 42.0167 -88.3500 180° South 157 181 4,000  Level Chicago TRACON
05:47PM 42.0000 -88.2833 109° East 194 223 4,000  Level Chicago TRACON
05:48PM 42.0000 -88.2000 90° East 220 253 4,000 -240 Level Chicago TRACON
05:49PM 42.0000 -88.1167 90° East 211 243 3,500 -780 Descending Chicago TRACON
05:50PM 42.0000 -88.0333 90° East 188 216 2,400 -1,020 Descending Chicago TRACON
05:51PM 42.0000 -87.9833 90° East 144 166 1,500 -840 Descending Chicago TRACON
05:52PM 42.0000 -87.9333 90° East 124 143 800 600 Descending Chicago TRACON
05:53PM 42.0167 -87.8667 71° East 198 228 2,800 1,260 Climbing Chicago TRACON
05:55PM 42.1333 -87.9333 337° Northwest 278 320 4,800 1,080 Climbing Chicago TRACON
05:56PM 42.0833 -87.9833 217° Southwest 229 264 6,100 2,100 Climbing Chicago TRACON
05:59PM 41.9450 -87.9011 156° South 263 303 12,000 2,340 Climbing Chicago Center
06:00PM 41.8906 -87.8258 134° Southeast 281 323 14,100 1,440 Climbing Chicago Center
06:01PM 41.8222 -87.7819 154° Southeast 280 322 15,000 420 Climbing Chicago Center
06:02PM 41.7353 -87.7542 167° South 298 343 15,000  Level Chicago Center
06:03PM 41.6594 -87.7356 170° South 280 322 15,000  Level Chicago Center
06:04PM 41.5867 -87.7128 167° South 266 306 15,000 540 Level Chicago Center
06:05PM 41.5103 -87.6892 167° South 279 321 16,200 1,380 Climbing Chicago Center
06:06PM 41.4658 -87.7672 233° Southwest 262 302 17,900 1,800 Climbing Chicago Center
06:07PM 41.4325 -87.8556 243° Southwest 266 306 20,000 960 Climbing Chicago Center
06:08PM 41.4025 -87.9300 242° Southwest 230 265 20,000  Level Chicago Center
06:09PM 41.3722 -88.0056 242° Southwest 226 260 20,000  Level Chicago Center
06:10PM 41.3381 -88.0875 241° Southwest 245 282 20,000  Level Chicago Center
06:11PM 41.3039 -88.1686 241° Southwest 249 287 20,000  Level Chicago Center
06:12PM 41.2714 -88.2472 241° Southwest 243 280 20,000  Level Chicago Center
06:13PM 41.2347 -88.3383 242° Southwest 270 311 20,000  Level Chicago Center
06:14PM 41.1986 -88.4256 241° Southwest 270 311 20,000  Level Chicago Center
06:15PM 41.1581 -88.5358 244° Southwest 275 316 20,000  Level Chicago Center
06:16PM 41.1267 -88.6306 246° West 280 322 20,000 -420 Level Chicago Center
06:17PM 41.0933 -88.7264 245° Southwest 283 326 19,200 -2,040 Descending Chicago Center
06:18PM 41.0608 -88.8225 246° West 271 312 15,800 -2,700 Descending Chicago Center
06:19PM 41.0322 -88.9047 245° Southwest 262 302 13,700 -2,160 Descending Chicago Center
06:20PM 41.0047 -88.9875 246° West 249 287 11,400 -1,620 Descending Chicago Center
06:21PM 40.9767 -89.0669 245° Southwest 235 270 10,400 -1,320 Descending Chicago Center
06:22PM 40.9514 -89.1383 245° Southwest 219 252 8,700 -1,740 Descending Chicago Center
06:23PM 40.9233 -89.2186 245° Southwest 204 235 6,900 -1,740 Descending Chicago Center
06:24PM 40.9008 -89.2839 246° West 197 227 5,200 -1,620 Descending Chicago Center
06:25PM 40.8789 -89.3458 245° Southwest 189 217 3,600 -1,380 Descending Chicago Center
06:26PM 40.8564 -89.4106 245° Southwest 191 220 2,400 -600 Descending Chicago Center
06:27PM 40.8350 -89.4711 245° Southwest 188 216 2,400  Level Chicago Center
06:28PM 40.8167 -89.5231 245° Southwest 173 199 2,400 -60 Level Chicago Center
06:29PM 40.7758 -89.5672 219° Southwest 171 197 2,300 -60 Descending Chicago Center
06:31PM 40.7500 -89.5944 219° Southwest 139 160 2,300 180 Level Chicago Center
06:32PM 40.7333 -89.6417 245° Southwest 154 177 2,700 300 Climbing Chicago Center
06:33PM 40.7736 -89.6869 320° Northwest 188 216 3,000 120 Climbing Chicago Center
06:34PM 40.8294 -89.6931 355° North 221 254 3,000  Level Chicago Center
06:35PM 40.8950 -89.6636 19° North 241 277 3,000  Level Chicago Center
06:36PM 40.9286 -89.5967 56° Northeast 255 293 3,000 -180 Level Chicago Center
06:37PM 40.8764 -89.5519 147° Southeast 215 247 2,700 -300 Descending Chicago Center
06:38PM 40.8272 -89.5303 162° South 196 226 2,400 -120 Descending Chicago Center
06:39PM 40.7922 -89.5439 196° South 167 192 2,500  Climbing Chicago Center
06:40PM 40.7619 -89.5819 224° Southwest 155 178 2,500 -60 Level Chicago Center
06:41PM 40.7350 -89.6100 218° Southwest 139 160 2,400 -420 Descending Chicago Center
06:42PM 40.7078 -89.6375 217° Southwest 129 148 1,700 -780 Descending Chicago Center
06:43PM 40.6806 -89.6650 217° Southwest 124 143 900 240 Descending Chicago Center
06:44PM 40.6475 -89.7033 221° Southwest 143 165 2,300 1,020 Climbing Chicago Center
06:45PM 40.6064 -89.7336 209° Southwest 188 216 3,000 420 Climbing Chicago Center
06:46PM 40.6211 -89.6417 78° East 247 284 3,200 -120 Climbing Chicago Center
06:47PM 40.6761 -89.5722 44° Northeast 268 308 2,800 -480 Descending Chicago Center
06:48PM 40.7189 -89.5828 349° North 202 232 2,300 -540 Descending Chicago Center
06:49PM 40.7161 -89.6244 265° West 148 170 1,800 -540 Descending Chicago Center
06:50PM 40.6933 -89.6536 224° Southwest 124 143 1,300 -600 Descending Chicago Center
06:51PM 40.6614 -89.6861 218° Southwest 126 145 600 -720 Descending Chicago Center